Time;durP1;ratioP1;P1;durP2;ratioP2;P2;SDS_P1;SDS_P2;PMS_P1;PMS_P2;Temp;Humidity;BMP_temperature;BMP_pressure;BME280_temperature;BME280_humidity;BME280_pressure;Samples;Min_cycle;Max_cycle;Signal;HPM_P1;HPM_P2
2022/06/02 00:02:36;;;;;;;11.75;10.30;;;;;;;12.88;55.68;102045.19;5173700;28;20511;-43
2022/06/02 00:05:21;;;;;;;11.45;10.35;;;;;;;12.85;55.67;102042.81;5168714;28;20428;-41
2022/06/02 00:08:08;;;;;;;13.63;9.67;;;;;;;12.84;55.83;102045.59;5172078;28;20541;-43
2022/06/02 00:10:50;;;;;;;13.18;11.02;;;;;;;12.80;55.95;102045.03;5164005;28;20444;-42
2022/06/02 00:13:29;;;;;;;13.20;10.43;;;;;;;12.66;55.86;102034.78;5168475;28;20457;-44
2022/06/02 00:16:10;;;;;;;14.52;11.50;;;;;;;12.74;56.07;102050.84;5158930;28;20446;-42
2022/06/02 00:18:50;;;;;;;14.88;11.82;;;;;;;12.65;56.15;102049.00;5174164;28;20421;-42
2022/06/02 00:21:31;;;;;;;13.77;11.25;;;;;;;12.62;56.30;102050.09;5151071;28;20441;-43
2022/06/02 00:24:15;;;;;;;14.75;12.18;;;;;;;12.59;56.06;102046.88;5166451;28;20483;-43
2022/06/02 00:26:55;;;;;;;14.35;11.27;;;;;;;12.45;56.19;102032.19;5170472;28;20928;-41
2022/06/02 00:29:38;;;;;;;13.77;11.55;;;;;;;12.57;56.38;102057.59;5172594;28;20454;-43
2022/06/02 00:32:18;;;;;;;13.95;12.55;;;;;;;12.46;56.56;102041.81;5167847;28;20893;-43
2022/06/02 00:35:01;;;;;;;12.23;10.85;;;;;;;12.52;56.41;102056.34;5169399;28;20514;-43
2022/06/02 00:37:47;;;;;;;15.00;12.00;;;;;;;12.40;56.63;102045.84;5168833;28;20506;-43
2022/06/02 00:40:21;;;;;;;11.50;10.35;;;;;;;12.41;56.70;102055.44;5171182;28;20433;-42
2022/06/02 00:43:02;;;;;;;11.83;10.30;;;;;;;12.42;56.66;102065.09;5169187;28;20437;-42
2022/06/02 00:45:34;;;;;;;14.50;10.95;;;;;;;12.23;56.75;102030.53;5168918;28;20560;-43
2022/06/02 00:48:18;;;;;;;14.43;12.02;;;;;;;12.13;56.75;102040.25;5170148;28;20527;-48
2022/06/02 00:50:59;;;;;;;13.93;11.40;;;;;;;12.28;57.04;102054.00;5170932;28;20897;-42
2022/06/02 00:57:30;;;;;;;13.77;11.35;;;;;;;12.29;57.15;102071.56;5170568;28;20865;-44
2022/06/02 00:59:53;;;;;;;11.98;10.77;;;;;;;12.21;57.40;102082.81;5166775;28;20436;-42
2022/06/02 01:02:28;;;;;;;13.57;11.00;;;;;;;12.18;57.35;102077.78;5168533;28;20466;-42
2022/06/02 01:05:00;;;;;;;13.10;10.63;;;;;;;12.12;57.34;102083.59;5160486;28;20429;-44
2022/06/02 01:07:49;;;;;;;12.57;10.70;;;;;;;12.07;57.41;102067.25;5174550;28;20500;-42
2022/06/02 01:10:41;;;;;;;13.13;10.75;;;;;;;11.97;57.51;102083.91;5173548;28;20899;-43
2022/06/02 01:13:33;;;;;;;12.57;10.80;;;;;;;12.06;57.63;102076.16;5165567;28;20492;-45
2022/06/02 01:16:16;;;;;;;12.32;10.30;;;;;;;12.00;57.65;102082.81;5172961;28;20505;-43
2022/06/02 01:19:04;;;;;;;14.90;10.98;;;;;;;11.75;57.54;102046.94;5167311;28;20428;-43
2022/06/02 01:21:57;;;;;;;10.80;9.70;;;;;;;11.96;57.61;102081.41;5167042;28;20405;-43
2022/06/02 01:25:03;;;;;;;13.63;10.65;;;;;;;11.70;57.70;102044.66;5169385;28;20409;-43
2022/06/02 01:28:33;;;;;;;12.45;10.02;;;;;;;11.91;57.82;102088.88;5167749;28;20424;-43
2022/06/02 01:31:21;;;;;;;11.50;10.30;;;;;;;11.76;57.85;102075.06;5067460;29;20493;-43
2022/06/02 01:34:06;;;;;;;11.88;10.25;;;;;;;11.85;58.00;102090.22;5168847;28;20842;-43
2022/06/02 01:36:46;;;;;;;14.15;12.10;;;;;;;11.83;57.87;102092.16;5166785;28;20520;-45
2022/06/02 01:39:37;;;;;;;12.98;11.52;;;;;;;11.81;57.88;102088.78;5171297;28;20450;-47
2022/06/02 01:42:20;;;;;;;12.60;11.32;;;;;;;11.70;57.93;102075.56;5172808;28;20504;-43
2022/06/02 01:45:02;;;;;;;12.32;11.13;;;;;;;11.75;58.09;102082.19;5166989;28;20531;-43
2022/06/02 01:47:40;;;;;;;15.40;12.32;;;;;;;11.71;58.07;102094.00;5166474;28;20448;-43
2022/06/02 01:50:33;;;;;;;14.23;12.73;;;;;;;11.44;58.15;102065.34;5168337;28;20419;-44
2022/06/02 01:53:17;;;;;;;15.00;12.07;;;;;;;11.67;58.11;102083.75;5171233;28;20768;-43
2022/06/02 01:56:19;;;;;;;14.60;12.77;;;;;;;11.65;58.32;102083.91;5172796;28;20417;-42
2022/06/02 01:59:08;;;;;;;14.20;12.18;;;;;;;11.58;58.21;102076.59;5165086;28;20413;-42
2022/06/02 02:01:48;;;;;;;14.45;12.95;;;;;;;11.61;58.35;102081.63;5164846;28;20417;-42
2022/06/02 02:04:53;;;;;;;15.10;13.50;;;;;;;11.52;58.35;102073.50;5168384;28;21093;-42
2022/06/02 02:07:34;;;;;;;16.83;13.55;;;;;;;11.41;58.57;102062.94;5169979;28;20445;-42
2022/06/02 02:10:19;;;;;;;14.88;13.38;;;;;;;11.37;58.53;102053.59;5168234;28;20423;-43
2022/06/02 02:13:22;;;;;;;16.75;12.95;;;;;;;11.48;58.64;102082.63;5167930;28;20428;-43
2022/06/02 02:16:06;;;;;;;16.35;13.13;;;;;;;11.41;58.64;102080.63;5166618;28;20806;-43
2022/06/02 02:18:53;;;;;;;14.98;13.43;;;;;;;11.42;58.81;102085.78;5153488;28;20498;-43
2022/06/02 02:21:39;;;;;;;16.00;14.25;;;;;;;11.35;58.76;102074.03;5168636;28;20873;-42
2022/06/02 02:24:29;;;;;;;15.50;12.97;;;;;;;11.40;58.96;102079.78;5165566;28;20416;-42
2022/06/02 02:27:19;;;;;;;17.75;14.10;;;;;;;11.37;58.94;102080.03;5174501;28;20538;-42
2022/06/02 02:30:02;;;;;;;17.23;14.18;;;;;;;11.26;59.01;102066.84;5164919;28;20428;-42
2022/06/02 02:32:47;;;;;;;16.07;13.87;;;;;;;11.31;59.02;102072.59;5169571;28;20412;-44
2022/06/02 02:35:25;;;;;;;16.95;14.23;;;;;;;11.18;59.05;102059.53;5168835;28;20479;-44
2022/06/02 02:38:09;;;;;;;15.70;14.02;;;;;;;11.06;59.24;102048.13;5150300;28;20428;-42
2022/06/02 02:40:47;;;;;;;18.05;14.55;;;;;;;11.23;59.30;102075.00;5160171;28;20408;-43
2022/06/02 02:43:25;;;;;;;16.50;14.70;;;;;;;11.19;59.26;102081.53;5168775;28;20503;-43
2022/06/02 02:46:04;;;;;;;16.02;14.07;;;;;;;11.19;59.21;102081.53;5167962;28;20451;-42
2022/06/02 02:48:49;;;;;;;17.65;14.55;;;;;;;11.12;59.43;102069.72;5167627;28;20494;-40
2022/06/02 02:51:38;;;;;;;16.73;14.95;;;;;;;11.07;59.58;102065.66;5173816;28;20426;-42
2022/06/02 02:54:18;;;;;;;17.95;15.23;;;;;;;11.03;59.42;102072.16;5177523;28;20438;-42
2022/06/02 02:56:57;;;;;;;18.35;15.40;;;;;;;11.06;59.51;102082.50;5157899;28;20512;-42
2022/06/02 02:59:52;;;;;;;18.13;15.18;;;;;;;11.05;59.53;102078.16;5170726;28;20495;-42
2022/06/02 03:02:31;;;;;;;17.87;15.87;;;;;;;11.03;59.54;102087.19;5167928;28;20515;-42
2022/06/02 03:05:12;;;;;;;18.45;15.88;;;;;;;10.93;59.51;102070.38;5167327;28;20419;-43
2022/06/02 03:07:44;;;;;;;18.83;14.98;;;;;;;10.98;59.70;102087.53;5168053;28;20419;-42
2022/06/02 03:10:23;;;;;;;16.40;14.70;;;;;;;10.96;59.85;102086.84;5175806;28;20558;-42
2022/06/02 03:13:13;;;;;;;17.40;15.52;;;;;;;10.56;59.74;102042.44;5171970;28;20527;-42
2022/06/02 03:15:53;;;;;;;17.50;15.63;;;;;;;10.89;59.93;102096.19;5168761;28;20462;-43
2022/06/02 03:18:47;;;;;;;19.37;16.23;;;;;;;10.89;59.89;102100.66;5169771;28;20408;-40
2022/06/02 03:21:31;;;;;;;18.33;16.13;;;;;;;10.44;59.94;102040.75;5173918;28;20420;-42
2022/06/02 03:24:28;;;;;;;18.75;15.95;;;;;;;10.81;59.98;102103.91;5175672;28;21157;-41
2022/06/02 03:27:15;;;;;;;17.98;16.08;;;;;;;10.82;60.12;102113.50;5171535;28;20420;-42
2022/06/02 03:30:12;;;;;;;19.67;15.95;;;;;;;10.81;60.11;102114.50;5170476;28;20541;-43
2022/06/02 03:33:05;;;;;;;18.92;16.77;;;;;;;10.81;60.22;102119.78;5159654;28;20432;-42
2022/06/02 03:35:49;;;;;;;21.52;16.80;;;;;;;10.31;60.22;102048.78;5170683;28;20423;-42
2022/06/02 03:38:38;;;;;;;21.70;17.02;;;;;;;10.86;60.20;102122.88;5180597;28;20477;-42
2022/06/02 03:41:37;;;;;;;22.88;19.50;;;;;;;10.91;60.16;102120.72;5169530;28;20413;-47
2022/06/02 03:44:24;;;;;;;24.33;17.67;;;;;;;11.00;60.30;102119.16;5168112;28;20770;-44
2022/06/02 03:47:23;;;;;;;20.80;18.03;;;;;;;11.08;60.16;102116.72;5175426;28;20522;-43
2022/06/02 03:50:17;;;;;;;19.92;17.02;;;;;;;11.14;60.26;102118.88;5171093;28;20431;-44
2022/06/02 03:53:21;;;;;;;19.13;16.70;;;;;;;11.20;60.21;102125.50;5170523;28;20985;-43
2022/06/02 03:56:07;;;;;;;18.47;16.33;;;;;;;11.26;60.16;102125.00;5167440;28;20497;-43
2022/06/02 03:59:01;;;;;;;19.50;16.48;;;;;;;11.24;60.33;102125.16;5167169;28;20526;-44
2022/06/02 04:01:40;;;;;;;19.52;17.38;;;;;;;11.24;60.34;102116.34;5171155;28;20530;-41
2022/06/02 04:04:27;;;;;;;19.60;16.67;;;;;;;11.28;60.46;102123.09;5167890;28;20433;-46
2022/06/02 04:07:20;;;;;;;19.65;16.70;;;;;;;11.28;60.36;102117.81;5177280;28;20417;-40
2022/06/02 04:10:07;;;;;;;20.08;16.60;;;;;;;11.27;60.45;102126.69;5169414;28;20865;-43
2022/06/02 04:16:51;;;;;;;20.58;17.15;;;;;;;11.29;60.77;102140.63;5166947;28;20409;-44
2022/06/02 04:22:55;;;;;;;24.30;16.88;;;;;;;11.33;60.83;102144.69;5171903;28;20397;-45
2022/06/02 04:25:43;;;;;;;19.42;17.33;;;;;;;11.37;60.81;102146.16;5173900;28;20423;-43
2022/06/02 04:28:24;;;;;;;21.52;17.98;;;;;;;11.38;60.70;102139.06;5169322;28;20812;-42
2022/06/02 04:31:11;;;;;;;17.83;16.03;;;;;;;11.44;60.77;102144.69;5170533;28;20487;-43
2022/06/02 04:33:55;;;;;;;18.92;16.50;;;;;;;11.43;60.83;102145.66;5167981;28;20838;-43
2022/06/02 04:36:38;;;;;;;20.75;17.55;;;;;;;11.41;60.74;102133.53;5172964;28;20815;-43
2022/06/02 04:39:18;;;;;;;19.25;16.38;;;;;;;11.56;60.83;102152.63;5166898;28;20497;-45
2022/06/02 04:42:02;;;;;;;19.40;17.33;;;;;;;11.37;60.90;102106.50;5170999;28;20416;-42
2022/06/02 04:44:45;;;;;;;19.02;17.02;;;;;;;11.65;60.94;102163.28;5172150;28;20434;-42
2022/06/02 04:47:25;;;;;;;18.60;16.60;;;;;;;11.69;60.69;102158.59;5169938;28;20948;-43
2022/06/02 04:50:08;;;;;;;21.05;16.95;;;;;;;11.75;60.89;102166.03;5170786;28;20425;-42
2022/06/02 04:52:52;;;;;;;21.88;17.80;;;;;;;11.70;60.83;102149.69;5169209;28;20452;-44
2022/06/02 04:55:36;;;;;;;19.25;17.20;;;;;;;11.88;60.76;102163.25;5169809;28;20431;-43
2022/06/02 04:58:18;;;;;;;21.48;18.38;;;;;;;11.91;60.72;102161.19;5170994;28;20442;-43
2022/06/02 05:01:02;;;;;;;20.27;17.42;;;;;;;12.00;60.81;102178.97;5171689;28;20496;-42
2022/06/02 05:03:45;;;;;;;20.85;17.45;;;;;;;12.08;60.56;102180.13;5169089;28;20417;-42
2022/06/02 05:06:31;;;;;;;17.02;15.27;;;;;;;12.11;60.70;102169.28;5167910;28;20431;-42
2022/06/02 05:09:13;;;;;;;20.20;15.77;;;;;;;12.53;60.43;102179.91;5170837;28;21022;-43
2022/06/02 05:11:56;;;;;;;16.43;13.50;;;;;;;14.19;59.20;102172.34;5168348;28;20450;-43
2022/06/02 05:14:34;;;;;;;12.70;10.33;;;;;;;16.30;56.99;102179.63;5168877;28;20475;-45
2022/06/02 05:17:36;;;;;;;11.63;7.72;;;;;;;18.19;55.54;102171.41;5167815;28;20426;-46
2022/06/02 05:20:46;;;;;;;9.70;6.73;;;;;;;20.08;54.31;102172.38;5164810;28;20765;-41
2022/06/02 05:24:03;;;;;;;9.40;5.95;;;;;;;22.02;52.23;102173.91;5147747;28;20493;-45
2022/06/02 05:27:30;;;;;;;8.55;4.88;;;;;;;23.71;50.11;102185.31;5165762;28;20405;-46
2022/06/02 05:30:36;;;;;;;5.32;4.13;;;;;;;25.11;47.99;102185.22;5163043;28;20819;-45
2022/06/02 05:33:44;;;;;;;7.75;4.18;;;;;;;25.76;46.62;102186.78;5159402;28;20506;-47
2022/06/02 05:36:58;;;;;;;9.48;3.80;;;;;;;25.87;46.11;102184.47;5152038;28;20403;-50
2022/06/02 05:39:55;;;;;;;7.30;4.10;;;;;;;26.88;44.39;102180.63;5169854;28;20439;-52
2022/06/02 05:42:43;;;;;;;7.50;4.15;;;;;;;27.47;43.28;102189.97;5168759;28;20431;-50
2022/06/02 05:45:40;;;;;;;9.73;3.60;;;;;;;28.35;41.77;102196.53;5172076;28;20442;-52
2022/06/02 05:48:36;;;;;;;4.90;2.90;;;;;;;29.29;40.48;102198.31;5165586;28;20496;-51
2022/06/02 05:51:22;;;;;;;6.28;2.78;;;;;;;30.20;39.06;102196.47;5173818;28;20411;-51
2022/06/02 05:54:14;;;;;;;5.03;1.90;;;;;;;30.81;37.97;102179.34;5179461;28;20463;-51
2022/06/02 05:57:02;;;;;;;6.00;1.73;;;;;;;31.54;36.75;102197.13;5182259;28;20421;-48
2022/06/02 05:59:58;;;;;;;4.00;1.67;;;;;;;32.14;36.04;102204.22;5184492;28;20716;-49
2022/06/02 06:03:01;;;;;;;5.10;2.10;;;;;;;32.65;34.95;102211.16;5186961;28;20500;-49
2022/06/02 06:05:41;;;;;;;3.47;1.73;;;;;;;33.13;34.23;102201.81;5179488;28;20499;-50
2022/06/02 06:08:27;;;;;;;3.13;1.45;;;;;;;33.32;33.40;102157.50;5177754;28;20489;-53
2022/06/02 06:11:16;;;;;;;7.15;1.88;;;;;;;34.10;32.82;102204.72;5167100;28;20960;-48
2022/06/02 06:14:18;;;;;;;3.05;1.05;;;;;;;34.34;32.06;102196.72;5175278;28;20886;-49
2022/06/02 06:17:01;;;;;;;2.15;1.40;;;;;;;34.41;31.48;102202.75;5155304;28;20521;-47
2022/06/02 06:20:02;;;;;;;3.15;1.00;;;;;;;34.67;31.19;102191.72;5169911;28;20419;-50
2022/06/02 06:23:13;;;;;;;2.50;1.10;;;;;;;34.67;30.62;102150.56;5184787;28;20779;-51
2022/06/02 06:26:03;;;;;;;3.95;1.33;;;;;;;34.67;30.35;102202.69;5180977;28;20411;-50
2022/06/02 06:28:41;;;;;;;3.80;1.50;;;;;;;34.82;30.06;102194.41;5161902;28;20420;-55
2022/06/02 06:31:23;;;;;;;3.08;0.82;;;;;;;35.17;29.81;102186.31;5164296;28;20512;-51
2022/06/02 06:34:08;;;;;;;2.80;0.90;;;;;;;35.34;29.36;102173.03;5137778;28;20869;-49
2022/06/02 06:37:04;;;;;;;5.28;0.65;;;;;;;35.85;28.55;102196.56;5119089;28;20447;-48
2022/06/02 06:39:51;;;;;;;1.90;0.60;;;;;;;36.21;28.20;102197.91;5118053;28;21371;-49
2022/06/02 06:42:49;;;;;;;3.13;1.10;;;;;;;36.25;27.92;102200.88;5126207;28;20420;-51
2022/06/02 06:45:31;;;;;;;2.92;1.10;;;;;;;36.03;27.75;102182.13;5128714;28;20427;-50
2022/06/02 06:48:14;;;;;;;2.83;1.10;;;;;;;35.99;27.81;102200.28;5130643;28;20517;-49
2022/06/02 06:50:56;;;;;;;3.83;0.98;;;;;;;36.00;27.71;102201.94;5127040;28;20416;-47
2022/06/02 06:53:44;;;;;;;4.03;1.30;;;;;;;36.11;27.52;102206.25;5137122;28;20418;-48
2022/06/02 06:56:22;;;;;;;2.72;1.30;;;;;;;36.15;27.16;102190.81;5136019;28;20914;-48
2022/06/02 06:59:12;;;;;;;2.90;1.08;;;;;;;36.33;26.98;102213.16;5132708;28;20941;-47
2022/06/02 07:01:55;;;;;;;3.95;1.00;;;;;;;36.44;26.97;102209.22;5137658;28;20530;-52
2022/06/02 07:04:40;;;;;;;2.75;1.13;;;;;;;36.48;26.64;102215.75;5139092;28;20449;-51
2022/06/02 07:07:18;;;;;;;2.20;0.80;;;;;;;36.44;26.53;102211.97;5129747;28;20518;-51
2022/06/02 07:09:57;;;;;;;2.60;1.03;;;;;;;36.43;26.65;102215.84;5143912;28;21012;-53
2022/06/02 07:12:53;;;;;;;3.30;1.00;;;;;;;36.45;26.66;102211.69;5142993;28;20426;-51
2022/06/02 07:15:47;;;;;;;2.58;0.90;;;;;;;36.47;26.73;102222.38;5139412;28;20513;-52
2022/06/02 07:18:49;;;;;;;3.37;1.20;;;;;;;36.47;26.44;102225.13;5136190;28;20813;-52
2022/06/02 07:21:44;;;;;;;3.78;1.33;;;;;;;36.46;26.54;102229.00;5127061;28;20485;-51
2022/06/02 07:24:26;;;;;;;2.50;1.40;;;;;;;36.33;26.66;102229.69;5137833;28;20806;-51
2022/06/02 07:27:06;;;;;;;2.92;1.30;;;;;;;35.79;26.83;102231.50;5132493;28;20509;-49
2022/06/02 07:29:51;;;;;;;5.50;1.10;;;;;;;34.82;26.91;102235.59;5142138;28;20407;-47
2022/06/02 07:33:03;;;;;;;2.60;0.88;;;;;;;33.84;27.55;102233.19;5152862;28;20418;-49
2022/06/02 07:36:01;;;;;;;2.23;0.60;;;;;;;33.10;27.63;102242.59;5176324;28;20411;-50
2022/06/02 07:39:20;;;;;;;2.10;0.88;;;;;;;32.42;28.13;102253.38;5174304;28;20423;-48
2022/06/02 07:42:16;;;;;;;2.60;0.97;;;;;;;31.27;28.47;102248.13;5173302;28;20843;-52
2022/06/02 07:45:30;;;;;;;2.15;0.80;;;;;;;30.74;28.90;102256.69;5172659;28;20432;-53
2022/06/02 07:48:50;;;;;;;1.80;0.80;;;;;;;30.63;29.21;102246.72;5172787;28;20411;-53
2022/06/02 07:51:29;;;;;;;2.38;1.00;;;;;;;30.72;29.08;102258.00;5168646;28;20442;-51
2022/06/02 07:54:23;;;;;;;2.05;0.70;;;;;;;30.91;28.97;102244.94;5180023;28;20484;-53
2022/06/02 07:57:11;;;;;;;3.55;0.70;;;;;;;30.73;28.90;102244.13;5184383;28;20446;-52
2022/06/02 08:00:04;;;;;;;2.58;1.00;;;;;;;29.50;29.14;102159.53;5164749;28;20416;-50
2022/06/02 08:03:15;;;;;;;1.55;0.93;;;;;;;29.03;29.52;102259.56;5179724;28;20418;-49
2022/06/02 08:05:54;;;;;;;3.97;1.10;;;;;;;27.90;30.22;102259.50;5160769;28;20865;-46
2022/06/02 08:08:33;;;;;;;1.77;0.82;;;;;;;27.11;30.53;102254.00;5168380;28;20546;-48
2022/06/02 08:11:27;;;;;;;3.08;0.60;;;;;;;26.62;30.71;102266.59;5192660;28;20421;-49
2022/06/02 08:14:11;;;;;;;1.10;0.80;;;;;;;26.24;30.68;102276.69;5168735;28;20410;-46
2022/06/02 08:16:54;;;;;;;2.45;0.73;;;;;;;26.11;31.03;102261.38;5179426;28;20430;-49
2022/06/02 08:19:41;;;;;;;1.50;0.45;;;;;;;26.49;30.93;102274.03;5182623;28;20476;-49
2022/06/02 08:22:23;;;;;;;2.15;0.68;;;;;;;26.68;30.92;102273.84;5189837;28;20485;-51
2022/06/02 08:25:09;;;;;;;2.30;0.90;;;;;;;26.43;31.13;102276.53;5184523;28;20537;-49
2022/06/02 08:28:00;;;;;;;2.33;0.75;;;;;;;26.30;31.21;102270.38;5178168;28;20435;-52
2022/06/02 08:30:41;;;;;;;2.20;1.00;;;;;;;26.66;30.90;102275.09;5192398;28;20497;-49
2022/06/02 08:33:43;;;;;;;2.75;0.57;;;;;;;27.05;30.57;102265.75;5179658;28;20899;-52
2022/06/02 08:36:20;;;;;;;1.80;0.70;;;;;;;27.37;30.22;102281.91;5185582;28;20419;-47
2022/06/02 08:39:14;;;;;;;2.45;0.70;;;;;;;27.25;30.08;102291.84;5188028;28;20423;-54
2022/06/02 08:42:33;;;;;;;2.50;0.80;;;;;;;27.17;30.09;102290.28;5184204;28;20419;-52
2022/06/02 08:46:06;;;;;;;2.22;0.63;;;;;;;27.33;30.02;102302.41;5188946;28;20426;-51
2022/06/02 08:49:05;;;;;;;2.45;0.60;;;;;;;27.49;29.86;102296.34;5183744;28;20437;-51
2022/06/02 08:52:36;;;;;;;1.98;0.57;;;;;;;27.65;29.57;102294.91;5186438;28;20838;-48
2022/06/02 08:55:53;;;;;;;3.72;0.80;;;;;;;27.76;29.61;102296.03;5173360;28;20498;-50
2022/06/02 08:59:12;;;;;;;5.27;0.90;;;;;;;27.92;29.39;102297.31;5162559;28;20869;-48
2022/06/02 09:02:19;;;;;;;2.75;0.80;;;;;;;27.86;29.39;102263.75;5144071;28;20882;-48
2022/06/02 09:05:50;;;;;;;1.43;0.63;;;;;;;27.90;29.14;102286.66;5179315;28;20862;-51
2022/06/02 09:08:54;;;;;;;1.53;0.70;;;;;;;27.67;29.47;102297.41;5158433;28;20417;-49
2022/06/02 09:11:40;;;;;;;1.97;0.60;;;;;;;27.46;29.49;102299.53;5176215;28;20981;-51
2022/06/02 09:15:06;;;;;;;2.60;0.80;;;;;;;27.23;29.63;102307.53;5174984;28;20427;-49
2022/06/02 09:17:47;;;;;;;1.92;0.75;;;;;;;27.03;29.62;102303.09;5150269;28;20490;-43
2022/06/02 09:20:41;;;;;;;1.85;0.90;;;;;;;26.80;29.66;102311.06;5173362;28;20820;-52
2022/06/02 09:23:43;;;;;;;2.40;0.90;;;;;;;26.67;29.76;102291.16;5171629;28;20416;-47
2022/06/02 09:26:35;;;;;;;2.47;1.42;;;;;;;26.69;29.59;102296.34;5170264;28;20431;-47
2022/06/02 09:29:30;;;;;;;1.35;0.70;;;;;;;26.50;29.65;102286.50;5170842;28;20455;-49
2022/06/02 09:32:23;;;;;;;1.00;0.60;;;;;;;26.47;29.73;102293.16;5172460;28;20506;-52
2022/06/02 09:35:12;;;;;;;2.35;0.70;;;;;;;26.55;29.72;102303.75;5146503;28;20459;-54
2022/06/02 09:38:36;;;;;;;3.25;0.80;;;;;;;26.71;29.55;102304.25;5173330;28;20506;-50
2022/06/02 09:41:42;;;;;;;1.77;0.82;;;;;;;26.89;29.33;102304.31;5169909;28;20460;-42
2022/06/02 09:44:24;;;;;;;3.70;0.88;;;;;;;26.48;29.59;102296.69;5167660;28;20533;-49
2022/06/02 09:47:35;;;;;;;1.73;0.75;;;;;;;26.10;29.84;102298.41;5172964;28;20415;-48
2022/06/02 09:50:44;;;;;;;1.58;0.77;;;;;;;25.99;29.64;102304.53;5169747;28;20545;-47
2022/06/02 09:54:07;;;;;;;2.78;0.95;;;;;;;26.15;29.59;102293.19;5171171;28;20846;-51
2022/06/02 10:00:18;;;;;;;2.03;1.15;;;;;;;25.86;29.78;102302.75;5169735;28;20817;-47
2022/06/02 10:03:15;;;;;;;2.05;0.70;;;;;;;25.87;29.84;102303.56;5144573;28;20420;-51
2022/06/02 10:06:07;;;;;;;1.67;0.93;;;;;;;25.88;29.75;102306.03;5170515;28;20450;-47
2022/06/02 10:08:58;;;;;;;1.97;0.70;;;;;;;25.89;29.70;102304.16;5168737;28;21429;-48
2022/06/02 10:11:39;;;;;;;2.30;0.70;;;;;;;25.94;29.67;102298.94;5176518;28;21796;-48
2022/06/02 10:14:39;;;;;;;2.83;1.10;;;;;;;25.99;29.51;102301.84;5169509;28;20434;-47
2022/06/02 10:17:37;;;;;;;4.00;0.90;;;;;;;25.56;29.76;102297.00;5156727;28;20415;-52
2022/06/02 10:20:30;;;;;;;3.60;0.90;;;;;;;25.64;29.74;102299.50;5154633;28;20411;-48
2022/06/02 10:23:27;;;;;;;1.60;0.93;;;;;;;25.96;29.46;102296.84;5164427;28;21068;-52
2022/06/02 10:26:26;;;;;;;1.13;0.70;;;;;;;26.33;28.95;102287.03;5164964;28;20494;-51
2022/06/02 10:29:44;;;;;;;2.10;0.70;;;;;;;26.40;28.85;102281.56;5163979;28;20423;-52
2022/06/02 10:33:25;;;;;;;2.33;0.90;;;;;;;25.96;29.12;102281.44;5162496;28;20423;-48
2022/06/02 10:36:27;;;;;;;1.88;0.73;;;;;;;25.84;29.18;102287.75;5168608;28;20449;-51
2022/06/02 10:39:24;;;;;;;1.38;0.80;;;;;;;25.84;29.36;102288.59;5166129;28;20413;-51
2022/06/02 10:42:23;;;;;;;1.80;0.90;;;;;;;25.75;29.33;102279.84;5168477;28;20578;-49
2022/06/02 10:45:31;;;;;;;3.00;1.10;;;;;;;25.79;29.23;102284.81;5169854;28;20911;-50
2022/06/02 10:48:50;;;;;;;4.30;1.23;;;;;;;25.83;29.49;102291.50;5163549;28;20504;-53
2022/06/02 10:52:07;;;;;;;2.53;1.35;;;;;;;25.66;29.53;102286.56;5164966;28;20460;-50
2022/06/02 10:55:14;;;;;;;1.70;0.82;;;;;;;25.91;29.36;102283.94;5133692;28;20531;-46
2022/06/02 10:58:26;;;;;;;1.95;0.88;;;;;;;26.25;29.25;102283.75;5112441;28;20475;-48
2022/06/02 11:02:05;;;;;;;2.28;0.82;;;;;;;26.35;29.24;102289.50;5157230;28;20405;-48
2022/06/02 11:05:25;;;;;;;1.90;0.90;;;;;;;26.34;29.03;102279.72;5163008;28;20439;-46
2022/06/02 11:09:04;;;;;;;4.07;1.42;;;;;;;26.19;29.15;102274.63;5168030;28;20878;-47
2022/06/02 11:12:27;;;;;;;2.97;1.27;;;;;;;25.33;29.84;102253.41;5131249;28;20415;-46
2022/06/02 11:15:58;;;;;;;5.40;1.65;;;;;;;25.26;30.18;102272.34;5129120;28;20502;-48
2022/06/02 11:19:15;;;;;;;2.70;1.00;;;;;;;25.09;30.35;102274.66;5074482;28;20467;-51
2022/06/02 11:22:29;;;;;;;4.18;1.63;;;;;;;24.88;30.46;102272.22;5169629;28;20415;-49
2022/06/02 11:25:35;;;;;;;4.40;1.50;;;;;;;24.07;31.30;102282.13;5168746;28;20428;-52
2022/06/02 11:28:49;;;;;;;2.15;1.15;;;;;;;23.80;31.42;102266.91;5167969;28;20490;-48
2022/06/02 11:32:08;;;;;;;4.55;1.30;;;;;;;23.90;31.36;102257.38;5171322;28;20425;-49
2022/06/02 11:35:21;;;;;;;2.92;1.70;;;;;;;24.23;31.29;102253.91;5168866;28;20430;-50
2022/06/02 11:38:18;;;;;;;2.35;1.60;;;;;;;24.43;31.13;102253.13;5168624;28;20414;-47
2022/06/02 11:41:35;;;;;;;2.60;1.67;;;;;;;24.01;31.44;102247.84;5171354;28;20513;-46
2022/06/02 11:44:12;;;;;;;6.60;1.63;;;;;;;23.64;31.85;102250.00;5141432;28;20572;-48
2022/06/02 11:47:37;;;;;;;3.60;1.30;;;;;;;23.51;32.22;102251.84;5168518;28;20771;-44
2022/06/02 11:50:44;;;;;;;3.72;1.60;;;;;;;23.05;32.60;102249.75;5169860;28;20465;-45
2022/06/02 11:53:50;;;;;;;3.92;1.50;;;;;;;23.13;32.76;102258.47;5167759;28;20767;-48
2022/06/02 11:56:42;;;;;;;4.50;1.80;;;;;;;23.51;32.50;102254.53;5169439;28;20428;-49
2022/06/02 12:00:08;;;;;;;3.90;1.90;;;;;;;23.93;32.21;102254.25;5168594;28;20438;-49
2022/06/02 12:03:11;;;;;;;1.73;1.43;;;;;;;24.31;32.03;102256.41;5144973;28;20431;-49
2022/06/02 12:06:27;;;;;;;1.83;1.65;;;;;;;24.64;31.89;102239.41;5168479;28;20419;-48
2022/06/02 12:09:39;;;;;;;3.13;1.60;;;;;;;24.74;31.69;102234.38;5147006;28;20429;-47
2022/06/02 12:12:41;;;;;;;3.33;1.65;;;;;;;24.69;31.94;102246.88;5169053;28;20998;-47
2022/06/02 12:15:47;;;;;;;4.75;1.40;;;;;;;25.03;31.59;102238.50;5170925;28;20419;-51
2022/06/02 12:18:28;;;;;;;4.68;1.30;;;;;;;25.32;31.29;102238.22;5174376;28;20510;-49
2022/06/02 12:21:32;;;;;;;3.38;1.25;;;;;;;25.42;31.09;102246.69;5177907;28;20502;-45
2022/06/02 12:24:40;;;;;;;2.70;1.60;;;;;;;25.63;30.82;102241.00;5177425;28;20446;-48
2022/06/02 12:27:41;;;;;;;4.68;1.70;;;;;;;25.68;30.73;102243.88;5160613;28;20467;-48
2022/06/02 12:30:33;;;;;;;4.27;1.83;;;;;;;25.35;30.95;102245.91;5167523;28;20453;-48
2022/06/02 12:33:52;;;;;;;3.10;1.63;;;;;;;25.27;30.91;102228.03;5169299;28;21375;-47
2022/06/02 12:36:58;;;;;;;3.90;1.48;;;;;;;25.30;31.02;102246.53;5154706;28;20422;-46
2022/06/02 12:39:54;;;;;;;2.03;1.20;;;;;;;25.38;30.69;102245.47;5150479;28;20423;-46
2022/06/02 12:43:14;;;;;;;3.10;1.50;;;;;;;25.53;30.83;102233.34;5171927;28;20903;-46
2022/06/02 12:45:51;;;;;;;4.10;1.52;;;;;;;25.86;30.48;102235.06;5144754;28;20441;-49
2022/06/02 12:49:21;;;;;;;2.10;1.30;;;;;;;26.05;30.47;102230.56;5169701;28;20447;-47
2022/06/02 12:52:10;;;;;;;4.88;1.75;;;;;;;26.15;30.39;102230.91;5164369;28;20440;-48
2022/06/02 12:55:33;;;;;;;4.85;1.48;;;;;;;26.03;30.40;102219.13;5169225;28;20451;-50
2022/06/02 12:58:51;;;;;;;3.30;1.50;;;;;;;25.77;30.81;102229.06;5111377;28;21011;-46
2022/06/02 13:02:00;;;;;;;1.63;1.30;;;;;;;25.59;30.81;102242.47;5165427;28;20427;-51
2022/06/02 13:05:28;;;;;;;3.88;1.67;;;;;;;25.25;30.97;102230.16;5160880;28;20423;-47
2022/06/02 13:08:59;;;;;;;1.58;1.48;;;;;;;25.06;30.70;102231.84;5170442;28;20739;-46
2022/06/02 13:12:25;;;;;;;2.22;1.67;;;;;;;24.54;31.06;102236.28;5170164;28;20419;-48
2022/06/02 13:15:27;;;;;;;1.50;1.40;;;;;;;24.45;30.88;102234.84;5168674;28;20914;-49
2022/06/02 13:18:45;;;;;;;2.35;1.48;;;;;;;24.61;30.71;102234.41;5171103;28;20426;-49
2022/06/02 13:21:47;;;;;;;3.45;1.60;;;;;;;24.67;30.22;102230.03;5157838;28;20754;-49
2022/06/02 13:25:15;;;;;;;2.75;1.42;;;;;;;24.66;30.46;102237.31;5155949;28;21995;-46
2022/06/02 13:28:26;;;;;;;8.63;2.20;;;;;;;23.78;31.67;102233.88;5154607;28;20419;-46
2022/06/02 13:31:34;;;;;;;2.03;1.57;;;;;;;23.59;31.68;102240.88;5167987;28;20806;-46
2022/06/02 13:34:59;;;;;;;3.70;1.77;;;;;;;23.31;31.69;102203.22;5170774;28;20498;-45
2022/06/02 13:38:09;;;;;;;2.47;1.23;;;;;;;23.65;31.52;102234.66;5174887;28;20485;-48
2022/06/02 13:41:03;;;;;;;5.90;1.70;;;;;;;23.82;31.57;102225.19;5174491;28;20997;-46
2022/06/02 13:44:03;;;;;;;2.08;1.42;;;;;;;23.53;31.59;102206.59;5180524;28;20435;-45